CheckWX is a tool to help pilots better visualize weather data.  It is not intended as a substitute for an official pre-flight weather briefing.

21:07:16 UTC

DNEN METAR
Akanu Ibiam International Airport
Enegu, Nigeria
Current

7 hours ago

DNEN 231400Z 26004KT 9999 BKN014 FEW020CB 34/23 Q1008
Observed
Feb-23 @ 14:00 UTC
Wind
  • 260° at 4 KTS
Visibility
10,000+ meters
Flight Rules
MVFR
Cloud Levels
  • Broken at 1,400' AGL
  • Few at 2,000' AGL
Temperature
34°C / 93°F
Dewpoint
23°C / 73°F
Humidity
53%
Altimeter
29.76" Hg
Pressure
1007.92 hPa
Previous

8 hours ago

DNEN 231300Z 28007KT 9999 BKN014 35/23 Q1009 NOSIG
Observed
Feb-23 @ 13:00 UTC
Wind
  • 280° at 7 KTS
Visibility
10,000+ meters
Flight Rules
MVFR
Cloud Levels
  • Broken at 1,400' AGL
Temperature
35°C / 95°F
Dewpoint
23°C / 73°F
Humidity
50%
Altimeter
29.79" Hg
Pressure
1008.92 hPa
Previous

23 hours ago

DNEN 222200Z 25006KT 6000 BKN010 29/24 Q1013
Observed
Feb-22 @ 22:00 UTC
Wind
  • 250° at 6 KTS
Visibility
6,003 meters
Flight Rules
MVFR
Cloud Levels
  • Broken at 1,000' AGL
Temperature
29°C / 84°F
Dewpoint
24°C / 75°F
Humidity
74%
Altimeter
29.91" Hg
Pressure
1012.92 hPa